createdAt,value
2018-12-01T00:00:26.113Z,19.93
2018-12-01T00:02:55.021Z,20.77
2018-12-01T00:05:29.705Z,19.17
2018-12-01T00:07:58.612Z,18.40
2018-12-01T00:10:27.512Z,18.23
2018-12-01T00:12:57.349Z,17.67
2018-12-01T00:15:27.288Z,17.77
2018-12-01T00:17:56.476Z,16.47
2018-12-01T00:20:30.891Z,17.53
2018-12-01T00:22:59.811Z,17.13
2018-12-01T00:25:28.700Z,18.13
2018-12-01T00:27:57.599Z,21.07
2018-12-01T00:30:26.500Z,19.17
2018-12-01T00:32:56.272Z,18.80
2018-12-01T00:35:25.240Z,19.63
2018-12-01T00:37:54.201Z,21.43
2018-12-01T00:40:23.120Z,24.37
2018-12-01T00:42:52.119Z,21.13
2018-12-01T00:45:22.128Z,22.60
2018-12-01T00:47:52.042Z,23.10
2018-12-01T00:50:21.876Z,23.67
2018-12-01T00:52:51.619Z,23.53
2018-12-01T00:55:20.649Z,23.37
2018-12-01T00:57:49.567Z,24.17
2018-12-01T01:00:22.125Z,24.53
2018-12-01T01:02:52.693Z,24.57
2018-12-01T01:05:25.477Z,24.10
2018-12-01T01:07:54.881Z,24.47
2018-12-01T01:10:29.704Z,25.33
2018-12-01T01:12:58.612Z,23.97
2018-12-01T01:15:27.540Z,23.53
2018-12-01T01:17:56.452Z,26.17
2018-12-01T01:20:25.358Z,24.27
2018-12-01T01:22:54.244Z,25.53
2018-12-01T01:25:23.136Z,25.80
2018-12-01T01:27:52.044Z,23.10
2018-12-01T01:30:21.965Z,24.87
2018-12-01T01:32:51.955Z,23.87
2018-12-01T01:35:20.884Z,24.77
2018-12-01T01:37:49.768Z,23.27
2018-12-01T01:40:18.692Z,24.23
2018-12-01T01:42:47.604Z,25.93
2018-12-01T01:45:17.761Z,25.17
2018-12-01T01:47:46.796Z,23.97
2018-12-01T01:50:17.873Z,26.13
2018-12-01T01:52:46.839Z,24.50
2018-12-01T01:55:15.740Z,24.20
2018-12-01T01:57:44.646Z,23.77
2018-12-01T02:00:18.470Z,23.83
2018-12-01T02:02:48.436Z,22.07
2018-12-01T02:05:18.381Z,24.40
2018-12-01T02:07:47.247Z,24.37
2018-12-01T02:10:16.952Z,24.10
2018-12-01T02:12:45.848Z,24.57
2018-12-01T02:15:15.019Z,23.87
2018-12-01T02:17:44.001Z,23.63
2018-12-01T02:20:14.705Z,21.87
2018-12-01T02:22:43.617Z,23.03
2018-12-01T02:25:13.607Z,25.13
2018-12-01T02:27:42.517Z,25.30
2018-12-01T02:30:12.641Z,26.13
2018-12-01T02:32:41.553Z,24.70
2018-12-01T02:35:18.272Z,22.97
2018-12-01T02:37:47.204Z,24.73
2018-12-01T02:40:16.118Z,25.10
2018-12-01T02:42:45.008Z,23.67
2018-12-01T02:45:25.240Z,22.97
2018-12-01T02:47:54.153Z,23.70
2018-12-01T02:50:26.802Z,26.00
2018-12-01T02:52:58.254Z,28.17
2018-12-01T02:55:27.249Z,27.03
2018-12-01T02:57:56.169Z,24.57
2018-12-01T03:00:25.077Z,26.80
2018-12-01T03:02:53.991Z,26.57
2018-12-01T03:05:23.493Z,26.27
2018-12-01T03:07:53.071Z,26.23
2018-12-01T03:10:22.500Z,23.40
2018-12-01T03:12:52.388Z,27.30
2018-12-01T03:15:21.326Z,25.87
2018-12-01T03:17:51.047Z,28.60
2018-12-01T03:20:20.022Z,29.83
2018-12-01T03:22:48.915Z,28.40
2018-12-01T03:25:18.845Z,28.00
2018-12-01T03:27:48.733Z,28.07
2018-12-01T03:30:25.762Z,30.50
2018-12-01T03:32:55.395Z,28.17
2018-12-01T03:35:25.001Z,28.27
2018-12-01T03:37:53.953Z,25.67
2018-12-01T03:40:23.000Z,28.73
2018-12-01T03:42:52.469Z,27.37
2018-12-01T03:45:22.155Z,26.60
2018-12-01T03:47:51.093Z,26.07
2018-12-01T03:50:22.440Z,27.33
2018-12-01T03:52:52.549Z,26.43
2018-12-01T03:55:32.559Z,24.87
2018-12-01T03:58:01.877Z,28.93
2018-12-01T04:00:31.516Z,30.87
2018-12-01T04:03:01.164Z,26.00
2018-12-01T04:05:30.356Z,29.17
2018-12-01T04:07:59.261Z,29.73
2018-12-01T04:10:28.304Z,26.97
2018-12-01T04:12:57.970Z,26.13
2018-12-01T04:15:26.975Z,26.07
2018-12-01T04:17:55.947Z,25.77
2018-12-01T04:20:24.878Z,24.33
2018-12-01T04:22:53.780Z,24.30
2018-12-01T04:25:22.681Z,24.27
2018-12-01T04:27:51.590Z,21.27
2018-12-01T04:30:22.301Z,20.73
2018-12-01T04:32:51.270Z,23.07
2018-12-01T04:35:20.917Z,23.90
2018-12-01T04:37:51.812Z,20.47
2018-12-01T04:40:20.765Z,22.03
2018-12-01T04:42:49.648Z,20.37
2018-12-01T04:45:18.740Z,23.63
2018-12-01T04:47:47.699Z,29.67
2018-12-01T04:50:17.493Z,25.40
2018-12-01T04:52:47.420Z,26.67
2018-12-01T04:55:17.370Z,23.77
2018-12-01T04:57:46.272Z,26.27
2018-12-01T05:00:18.149Z,26.90
2018-12-01T05:02:47.074Z,27.90
2018-12-01T05:05:20.806Z,29.53
2018-12-01T05:07:49.959Z,23.87
2018-12-01T05:10:20.785Z,29.40
2018-12-01T05:12:49.986Z,22.60
2018-12-01T05:15:19.447Z,20.87
2018-12-01T05:17:48.413Z,28.13
2018-12-01T05:20:21.319Z,28.37
2018-12-01T05:22:50.830Z,30.03
2018-12-01T05:25:19.724Z,23.67
2018-12-01T05:27:48.727Z,22.43
2018-12-01T05:30:17.668Z,20.80
2018-12-01T05:32:46.549Z,28.00
2018-12-01T05:35:18.646Z,22.23
2018-12-01T05:37:47.557Z,21.53
2018-12-01T05:40:16.481Z,21.90
2018-12-01T05:42:45.380Z,25.20
2018-12-01T05:45:15.525Z,22.00
2018-12-01T05:47:44.460Z,20.03
2018-12-01T05:50:14.229Z,24.73
2018-12-01T05:52:43.108Z,23.20
2018-12-01T05:55:12.464Z,20.63
2018-12-01T05:57:41.404Z,22.50
2018-12-01T06:00:11.714Z,22.90
2018-12-01T06:02:40.601Z,20.27
2018-12-01T06:05:10.380Z,21.97
2018-12-01T06:07:39.471Z,21.33
2018-12-01T06:10:13.138Z,20.00
2018-12-01T06:12:42.104Z,25.97
2018-12-01T06:15:11.955Z,25.83
2018-12-01T06:17:40.881Z,24.17
2018-12-01T06:20:12.992Z,18.03
2018-12-01T06:22:41.925Z,22.73
2018-12-01T06:25:12.325Z,25.23
2018-12-01T06:27:41.351Z,24.70
2018-12-01T06:30:13.486Z,21.20
2018-12-01T06:32:42.468Z,18.83
2018-12-01T06:35:11.374Z,23.40
2018-12-01T06:37:40.324Z,21.60
2018-12-01T06:40:12.247Z,23.13
2018-12-01T06:42:41.137Z,19.17
2018-12-01T06:45:12.074Z,19.43
2018-12-01T06:47:40.970Z,18.80
2018-12-01T06:50:11.964Z,20.43
2018-12-01T06:52:40.872Z,19.67
2018-12-01T06:55:10.881Z,19.20
2018-12-01T06:57:39.854Z,18.67
2018-12-01T07:00:15.746Z,17.77
2018-12-01T07:02:45.351Z,19.67
2018-12-01T07:05:15.080Z,18.10
2018-12-01T07:07:43.977Z,18.27
2018-12-01T07:10:21.559Z,17.43
2018-12-01T07:12:54.626Z,19.37
2018-12-01T09:19:02.607Z,15.08
2018-12-01T09:21:34.060Z,12.83
2018-12-01T09:24:02.972Z,14.07
2018-12-01T09:26:31.856Z,10.07
2018-12-01T09:29:00.752Z,10.53
2018-12-01T09:31:29.642Z,10.37
2018-12-01T09:33:58.601Z,10.90
2018-12-01T09:36:27.467Z,10.80
2018-12-01T09:38:56.342Z,10.63
2018-12-01T09:41:25.247Z,9.80
2018-12-01T09:43:54.152Z,9.93
2018-12-01T09:46:23.020Z,9.37
2018-12-01T09:48:51.945Z,9.60
2018-12-01T09:51:20.817Z,10.30
2018-12-01T09:53:49.680Z,10.60
2018-12-01T09:56:18.620Z,8.67
2018-12-01T09:58:47.853Z,9.53
2018-12-01T10:01:16.776Z,8.10
2018-12-01T10:03:45.653Z,8.93
2018-12-01T10:06:14.598Z,8.33
2018-12-01T10:08:43.460Z,9.77
2018-12-01T10:11:12.323Z,9.20
2018-12-01T10:13:42.039Z,9.77
2018-12-01T10:16:10.965Z,9.80
2018-12-01T10:18:39.882Z,11.23
2018-12-01T10:21:08.832Z,11.87
2018-12-01T10:23:37.766Z,10.00
2018-12-01T10:26:06.716Z,11.33
2018-12-01T10:28:35.581Z,11.23
2018-12-01T10:31:04.509Z,10.27
2018-12-01T10:33:33.447Z,8.57
2018-12-01T10:36:02.347Z,8.43
2018-12-01T10:38:31.304Z,8.60
2018-12-01T10:41:00.180Z,9.13
2018-12-01T10:43:29.094Z,9.13
2018-12-01T10:45:58.174Z,8.77
2018-12-01T10:48:26.868Z,9.17
2018-12-01T10:50:55.842Z,8.77
2018-12-01T10:53:24.771Z,9.40
2018-12-01T10:55:53.812Z,8.23
2018-12-01T10:58:25.369Z,7.87
2018-12-01T11:00:59.916Z,7.80
2018-12-01T11:03:35.144Z,7.03
2018-12-01T11:06:09.062Z,6.03
2018-12-01T11:08:38.087Z,7.03
2018-12-01T11:11:09.304Z,6.60
2018-12-01T11:13:38.272Z,6.27
2018-12-01T11:16:07.847Z,4.83
2018-12-01T11:18:37.058Z,5.00
2018-12-01T11:21:06.143Z,5.67
2018-12-01T11:23:35.535Z,5.87
2018-12-01T11:26:04.559Z,5.80
2018-12-01T11:28:33.986Z,6.33
2018-12-01T11:31:03.008Z,6.17
2018-12-01T11:33:31.958Z,6.30
2018-12-01T11:36:00.912Z,6.40
2018-12-01T11:38:29.949Z,7.37
2018-12-01T11:40:59.112Z,7.30
2018-12-01T11:43:28.118Z,7.50
2018-12-01T11:45:57.036Z,7.60
2018-12-01T11:48:26.174Z,8.43
2018-12-01T11:50:55.210Z,8.17
2018-12-01T11:53:24.277Z,8.70
2018-12-01T11:55:53.815Z,7.53
2018-12-01T11:58:22.704Z,7.40
2018-12-01T12:00:51.608Z,7.70
2018-12-01T12:03:20.524Z,7.83
2018-12-01T12:05:49.477Z,9.13
2018-12-01T12:08:19.856Z,7.53
2018-12-01T12:10:49.810Z,7.20
2018-12-01T12:13:19.150Z,8.40
2018-12-01T12:15:48.395Z,7.50
2018-12-01T12:18:18.541Z,7.43
2018-12-01T12:20:47.560Z,7.50
2018-12-01T12:23:16.981Z,6.90
2018-12-01T12:25:46.002Z,6.90
2018-12-01T12:28:15.033Z,7.10
2018-12-01T12:30:44.162Z,7.87
2018-12-01T12:33:14.098Z,7.57
2018-12-01T12:35:43.108Z,7.17
2018-12-01T12:38:12.192Z,6.63
2018-12-01T12:40:41.136Z,6.73
2018-12-01T12:43:10.105Z,8.03
2018-12-01T12:45:39.057Z,8.63
2018-12-01T12:48:08.773Z,21.23
2018-12-01T12:50:37.954Z,9.17
2018-12-01T12:53:06.877Z,8.57
2018-12-01T12:55:35.853Z,11.20
2018-12-01T12:58:05.258Z,8.90
2018-12-01T13:00:34.212Z,8.30
2018-12-01T13:03:06.205Z,8.07
2018-12-01T13:05:43.148Z,6.53
2018-12-01T13:08:13.587Z,6.77
2018-12-01T13:10:42.547Z,7.97
2018-12-01T13:13:16.816Z,7.27
2018-12-01T13:15:46.360Z,7.00
2018-12-01T13:18:15.549Z,6.10
2018-12-01T13:20:45.783Z,6.57
2018-12-01T13:23:14.701Z,6.73
2018-12-01T13:25:43.892Z,7.50
2018-12-01T13:28:28.692Z,6.43
2018-12-01T13:30:58.807Z,7.00
2018-12-01T13:33:28.889Z,7.87
2018-12-01T13:35:58.184Z,7.23
2018-12-01T13:38:27.401Z,7.80
2018-12-01T13:40:56.363Z,7.33
2018-12-01T13:43:25.269Z,7.33
2018-12-01T13:45:54.204Z,7.13
2018-12-01T13:48:35.992Z,7.23
2018-12-01T13:51:04.984Z,6.50
2018-12-01T13:53:33.896Z,8.07
2018-12-01T13:56:02.873Z,7.23
2018-12-01T13:58:32.031Z,7.00
2018-12-01T14:01:00.956Z,7.43
2018-12-01T14:03:29.874Z,8.03
2018-12-01T14:05:58.933Z,7.93
2018-12-01T14:08:27.979Z,8.90
2018-12-01T14:10:56.889Z,8.43
2018-12-01T14:13:25.789Z,7.93
2018-12-01T14:15:54.657Z,8.60
2018-12-01T14:18:23.568Z,8.60
2018-12-01T14:20:52.468Z,9.40
2018-12-01T14:23:21.940Z,8.90
2018-12-01T14:25:50.313Z,8.40
2018-12-01T14:28:21.319Z,8.57
2018-12-01T14:30:50.222Z,8.43
2018-12-01T14:33:19.117Z,8.90
2018-12-01T14:35:47.993Z,8.77
2018-12-01T14:38:17.890Z,8.63
2018-12-01T14:40:49.544Z,9.07
2018-12-01T14:43:18.688Z,8.87
2018-12-01T14:45:48.620Z,8.87
2018-12-01T14:48:17.520Z,9.30
2018-12-01T14:50:48.800Z,8.70
2018-12-01T14:53:16.387Z,9.00
2018-12-01T14:55:45.381Z,9.87
2018-12-01T14:58:15.226Z,10.03
2018-12-01T15:00:44.120Z,10.97
2018-12-01T15:03:13.013Z,13.67
2018-12-01T15:05:42.157Z,11.97
2018-12-01T15:08:11.072Z,10.57
2018-12-01T15:10:39.972Z,10.27
2018-12-01T15:13:08.961Z,10.80
2018-12-01T15:15:37.874Z,10.37
2018-12-01T15:18:06.847Z,10.57
2018-12-01T15:20:35.806Z,8.00
2018-12-01T15:23:05.287Z,8.50
2018-12-01T15:25:34.189Z,9.17
2018-12-01T15:28:03.088Z,9.33
2018-12-01T15:30:32.024Z,9.93
2018-12-01T15:33:06.547Z,9.40
2018-12-01T15:35:35.917Z,11.15
2018-12-01T15:38:05.655Z,8.70
2018-12-01T15:40:34.617Z,8.90
2018-12-01T15:43:03.524Z,9.23
2018-12-01T15:45:32.503Z,8.97
2018-12-01T15:48:01.747Z,8.90
2018-12-01T15:50:30.733Z,10.23
2018-12-01T15:52:59.630Z,10.07
2018-12-01T15:55:28.522Z,10.40
2018-12-01T15:57:57.512Z,8.80
2018-12-01T16:00:28.022Z,9.23
2018-12-01T16:02:57.038Z,10.10
2018-12-01T16:05:26.027Z,10.47
2018-12-01T16:07:56.248Z,9.60
2018-12-01T16:10:25.412Z,9.93
2018-12-01T16:12:57.965Z,11.43
2018-12-01T16:15:30.453Z,9.67
2018-12-01T16:17:59.364Z,11.20
2018-12-01T16:20:28.278Z,10.53
2018-12-01T16:22:57.209Z,10.60
2018-12-01T16:25:26.588Z,10.27
2018-12-01T16:27:55.524Z,9.83
2018-12-01T16:30:30.684Z,10.37
2018-12-01T16:33:04.068Z,9.43
2018-12-01T16:35:32.947Z,9.90
2018-12-01T16:38:02.320Z,10.37
2018-12-01T16:40:54.726Z,10.67
2018-12-01T16:43:23.908Z,10.27
2018-12-01T16:45:53.229Z,10.70
2018-12-01T16:48:22.459Z,11.40
2018-12-01T16:50:51.384Z,10.10
2018-12-01T16:53:21.373Z,10.00
2018-12-01T16:55:50.341Z,7.67
2018-12-01T16:58:19.360Z,6.43
2018-12-01T17:00:48.246Z,6.30
2018-12-01T17:03:17.127Z,5.90
2018-12-01T17:05:50.902Z,7.20
2018-12-01T17:08:19.801Z,5.77
2018-12-01T17:10:48.712Z,6.37
2018-12-01T17:13:17.628Z,4.93
2018-12-01T17:15:46.599Z,5.97
2018-12-01T17:18:15.504Z,6.20
2018-12-01T17:20:44.405Z,5.80
2018-12-01T17:23:14.977Z,6.23
2018-12-01T17:25:43.929Z,13.37
2018-12-01T17:28:15.359Z,7.50
2018-12-01T17:30:44.401Z,5.10
2018-12-01T17:33:13.894Z,6.87
2018-12-01T17:35:42.849Z,5.10
2018-12-01T17:38:13.345Z,5.60
2018-12-01T17:40:48.880Z,5.53
2018-12-01T17:43:23.104Z,6.37
2018-12-01T17:45:52.032Z,6.03
2018-12-01T17:48:20.990Z,6.03
2018-12-01T17:50:49.919Z,6.13
2018-12-01T17:53:18.896Z,5.90
2018-12-01T17:55:47.799Z,6.00
2018-12-01T17:58:16.717Z,6.17
2018-12-01T18:00:45.613Z,7.17
2018-12-01T18:03:14.492Z,6.70
2018-12-01T18:05:46.136Z,6.17
2018-12-01T18:08:17.483Z,6.40
2018-12-01T18:10:47.731Z,5.93
2018-12-01T18:13:17.266Z,7.13
2018-12-01T18:15:46.184Z,6.17
2018-12-01T18:18:15.565Z,6.47
2018-12-01T18:20:44.604Z,6.93
2018-12-01T18:24:06.745Z,6.27
2018-12-01T18:26:35.994Z,6.57
2018-12-01T18:29:05.364Z,6.57
2018-12-01T18:31:38.238Z,6.93
2018-12-01T18:34:37.020Z,6.70
2018-12-01T18:37:39.045Z,6.78
2018-12-01T18:40:23.381Z,6.70
2018-12-01T18:42:52.270Z,6.50
2018-12-01T18:45:23.716Z,6.60
2018-12-01T18:47:52.907Z,6.83
2018-12-01T18:50:22.182Z,7.67
2018-12-01T18:53:02.122Z,7.83
2018-12-01T18:55:35.586Z,8.60
2018-12-01T18:58:05.662Z,8.47
2018-12-01T19:00:51.672Z,9.03
2018-12-01T19:03:22.322Z,8.23
2018-12-01T19:05:51.716Z,8.07
2018-12-01T19:08:20.851Z,8.30
2018-12-01T19:10:49.905Z,7.97
2018-12-01T19:13:18.950Z,7.83
2018-12-01T19:15:48.013Z,7.30
2018-12-01T19:18:17.104Z,8.17
2018-12-01T19:20:46.519Z,7.27
2018-12-01T19:23:16.796Z,6.80
2018-12-01T19:25:47.598Z,6.90
2018-12-01T19:28:16.548Z,6.47
2018-12-01T19:30:45.608Z,6.77
2018-12-01T19:33:16.057Z,6.30
2018-12-01T19:35:45.807Z,6.13
2018-12-01T19:38:19.490Z,6.33
2018-12-01T19:40:48.586Z,6.47
2018-12-01T19:43:17.529Z,7.50
2018-12-01T19:45:46.546Z,6.43
2018-12-01T19:48:15.580Z,6.87
2018-12-01T19:50:46.526Z,6.70
2018-12-01T19:53:16.464Z,6.20
2018-12-01T19:55:47.136Z,6.70
2018-12-01T19:58:21.134Z,5.90
2018-12-01T20:01:01.365Z,5.80
2018-12-01T20:03:31.641Z,5.77
2018-12-01T20:06:00.696Z,6.10
2018-12-01T20:08:30.057Z,5.57
2018-12-01T20:11:03.549Z,6.23
2018-12-01T20:13:34.913Z,5.63
2018-12-01T20:16:41.957Z,5.50
2018-12-01T20:19:11.243Z,5.37
2018-12-01T20:21:40.395Z,5.67
2018-12-01T20:24:09.621Z,5.47
2018-12-01T20:26:41.559Z,5.17
2018-12-01T20:29:10.542Z,4.40
2018-12-01T20:31:39.459Z,4.77
2018-12-01T20:34:08.936Z,4.97
2018-12-01T20:36:44.176Z,5.00
2018-12-01T20:39:15.815Z,4.87
2018-12-01T20:41:44.744Z,5.23
2018-12-01T20:47:28.548Z,4.80
2018-12-01T20:49:57.502Z,5.30
2018-12-01T20:52:26.467Z,5.67
2018-12-01T20:54:55.449Z,5.20
2018-12-01T20:57:29.558Z,5.50
2018-12-01T20:59:58.824Z,4.80
2018-12-01T21:02:27.944Z,5.27
2018-12-01T21:04:57.039Z,4.70
2018-12-01T21:07:26.007Z,4.60
2018-12-01T21:09:54.941Z,5.27
2018-12-01T21:12:23.975Z,5.30
2018-12-01T21:14:52.995Z,4.63
2018-12-01T21:17:21.953Z,5.00
2018-12-01T21:19:50.853Z,4.90
2018-12-01T21:22:19.803Z,5.57
2018-12-01T21:24:48.778Z,5.30
2018-12-01T21:27:18.081Z,5.50
2018-12-01T21:29:46.956Z,4.83
2018-12-01T21:32:15.971Z,4.63
2018-12-01T21:34:44.878Z,4.20
2018-12-01T21:37:13.804Z,4.87
2018-12-01T21:39:42.759Z,4.73
2018-12-01T21:42:11.778Z,4.83
2018-12-01T21:44:40.701Z,4.40
2018-12-01T21:47:09.581Z,4.50
2018-12-01T21:49:38.486Z,4.80
2018-12-01T21:52:07.562Z,4.27
2018-12-01T21:54:36.573Z,4.10
2018-12-01T21:57:05.780Z,4.60
2018-12-01T21:59:34.698Z,4.67
2018-12-01T22:02:03.754Z,3.73
2018-12-01T22:04:32.739Z,4.20
2018-12-01T22:07:01.637Z,4.90
2018-12-01T22:09:30.588Z,4.13
2018-12-01T22:11:59.505Z,4.17
2018-12-01T22:14:28.601Z,4.27
2018-12-01T22:16:57.488Z,3.83
2018-12-01T22:19:26.377Z,3.87
2018-12-01T22:21:55.263Z,3.40
2018-12-01T22:24:24.153Z,3.80
2018-12-01T22:26:53.109Z,3.57
2018-12-01T22:29:22.009Z,3.37
2018-12-01T22:31:50.933Z,3.80
2018-12-01T22:34:19.920Z,3.43
2018-12-01T22:36:48.923Z,3.43
2018-12-01T22:39:17.909Z,3.63
2018-12-01T22:41:46.922Z,3.57
2018-12-01T22:44:15.873Z,3.40
2018-12-01T22:46:44.897Z,3.57
2018-12-01T22:49:14.025Z,3.17
2018-12-01T22:54:49.500Z,3.50
2018-12-01T22:57:18.496Z,3.90
2018-12-01T22:59:47.409Z,4.07
2018-12-01T23:02:16.517Z,4.30
2018-12-01T23:04:45.592Z,4.53
2018-12-01T23:07:14.672Z,4.77
2018-12-01T23:09:43.574Z,4.10
2018-12-01T23:12:12.713Z,3.90
2018-12-01T23:14:41.744Z,3.67
2018-12-01T23:17:10.800Z,3.73
2018-12-01T23:19:39.790Z,3.80
2018-12-01T23:22:08.805Z,3.80
2018-12-01T23:24:37.848Z,3.93
2018-12-01T23:27:06.859Z,4.00
2018-12-01T23:29:35.862Z,3.90
2018-12-01T23:32:05.461Z,3.87
2018-12-01T23:34:34.544Z,4.23
2018-12-01T23:37:03.572Z,3.80
2018-12-01T23:39:32.461Z,3.60
2018-12-01T23:42:01.533Z,4.40
2018-12-01T23:44:30.581Z,4.37
2018-12-01T23:46:59.529Z,4.50
2018-12-01T23:49:28.444Z,3.87
2018-12-01T23:51:57.374Z,3.53
2018-12-01T23:54:26.257Z,3.70
2018-12-01T23:56:55.216Z,4.13
2018-12-01T23:59:24.252Z,3.30
